Time;durP1;ratioP1;P1;durP2;ratioP2;P2;SDS_P1;SDS_P2;PMS_P1;PMS_P2;Temp;Humidity;BMP_temperature;BMP_pressure;BME280_temperature;BME280_humidity;BME280_pressure;Samples;Min_cycle;Max_cycle;Signal;HPM_P1;HPM_P2
2023/03/07 00:00:20;;;;;;;90.22;70.68;;;;;;;0.31;100.00;100415.81;5089045;28;20114;-76
2023/03/07 00:02:50;;;;;;;80.57;65.18;;;;;;;0.41;100.00;100419.97;5088573;28;20497;-76
2023/03/07 00:05:17;;;;;;;77.43;67.05;;;;;;;0.31;100.00;100421.03;5088450;28;20048;-76
2023/03/07 00:07:44;;;;;;;82.15;68.45;;;;;;;-0.01;100.00;100420.47;5088929;28;20051;-76
2023/03/07 00:10:11;;;;;;;81.15;72.53;;;;;;;-0.07;100.00;100418.44;5088633;28;20555;-76
2023/03/07 00:12:38;;;;;;;80.15;65.20;;;;;;;-0.11;100.00;100411.88;5088840;28;20131;-76
2023/03/07 00:15:08;;;;;;;59.60;46.95;;;;;;;-0.10;100.00;100408.28;5088747;28;20479;-76
2023/03/07 00:17:36;;;;;;;58.60;40.60;;;;;;;-0.19;100.00;100403.94;5074990;28;20056;-76
2023/03/07 00:20:05;;;;;;;58.30;41.15;;;;;;;-0.22;100.00;100395.56;5075136;28;20102;-76
2023/03/07 00:22:32;;;;;;;54.65;42.85;;;;;;;-0.10;100.00;100397.84;5075161;28;20049;-76
2023/03/07 00:24:59;;;;;;;49.38;40.05;;;;;;;-0.49;100.00;100391.94;5074857;28;20563;-76
2023/03/07 00:27:25;;;;;;;50.67;43.00;;;;;;;-0.43;100.00;100396.59;5075138;28;20048;-76
2023/03/07 00:29:52;;;;;;;52.97;44.28;;;;;;;-0.39;100.00;100378.88;5074748;28;20041;-76
2023/03/07 00:32:20;;;;;;;60.83;49.28;;;;;;;-0.29;100.00;100390.94;5075021;28;20045;-76
2023/03/07 00:34:47;;;;;;;62.60;49.65;;;;;;;-0.36;100.00;100389.88;5074640;28;20044;-76
2023/03/07 00:37:14;;;;;;;58.65;43.78;;;;;;;-0.36;100.00;100381.22;5075398;28;20052;-76
2023/03/07 00:39:41;;;;;;;57.58;43.13;;;;;;;-0.32;100.00;100375.56;5074804;28;20140;-76
2023/03/07 00:42:08;;;;;;;59.78;44.00;;;;;;;-0.34;100.00;100374.88;5074899;28;20082;-76
2023/03/07 00:44:35;;;;;;;59.22;44.55;;;;;;;-0.45;100.00;100367.25;5074756;28;20051;-76
2023/03/07 00:47:02;;;;;;;62.40;46.58;;;;;;;-0.36;100.00;100365.56;5074736;28;20044;-76
2023/03/07 00:49:30;;;;;;;61.85;45.75;;;;;;;-0.37;100.00;100361.28;5074577;28;20040;-76
2023/03/07 00:51:57;;;;;;;58.53;44.30;;;;;;;-0.58;100.00;100362.31;5074605;28;20055;-76
2023/03/07 00:54:23;;;;;;;57.72;42.70;;;;;;;-0.40;100.00;100366.78;5074606;28;20114;-76
2023/03/07 00:56:50;;;;;;;64.80;46.28;;;;;;;-0.43;100.00;100351.41;5074280;28;20106;-76
2023/03/07 00:59:17;;;;;;;67.03;45.35;;;;;;;-0.37;100.00;100350.84;5074700;28;20044;-76
2023/03/07 01:01:44;;;;;;;68.93;44.45;;;;;;;-0.78;100.00;100340.69;5074361;28;20135;-76
2023/03/07 01:04:11;;;;;;;89.80;50.95;;;;;;;-0.50;100.00;100341.56;5074271;28;20045;-76
2023/03/07 01:06:39;;;;;;;62.90;43.35;;;;;;;-0.31;100.00;100338.03;5074011;28;20049;-76
2023/03/07 01:09:07;;;;;;;85.13;52.10;;;;;;;-0.16;100.00;100327.94;5074220;28;20113;-76
2023/03/07 01:11:36;;;;;;;199.57;89.22;;;;;;;-0.09;100.00;100322.94;5073910;28;20053;-76
2023/03/07 01:14:05;;;;;;;148.35;71.95;;;;;;;0.11;100.00;100323.66;5073838;28;20506;-76
2023/03/07 01:16:34;;;;;;;102.45;58.60;;;;;;;-0.30;100.00;100313.59;5073822;28;20051;-76
2023/03/07 01:19:02;;;;;;;107.28;59.28;;;;;;;-0.15;100.00;100318.31;5074095;28;20048;-76
2023/03/07 01:21:31;;;;;;;78.85;50.70;;;;;;;0.11;100.00;100328.88;5074101;28;20052;-76
2023/03/07 01:23:59;;;;;;;78.30;49.65;;;;;;;0.11;100.00;100328.88;5074056;28;20121;-76
2023/03/07 01:26:28;;;;;;;69.05;46.15;;;;;;;0.10;100.00;100320.25;5073595;28;20098;-76
2023/03/07 01:28:57;;;;;;;59.47;42.30;;;;;;;-0.10;100.00;100316.09;5072985;28;20082;-76
2023/03/07 01:31:25;;;;;;;50.38;41.67;;;;;;;-0.05;100.00;100321.72;5073642;28;20501;-76
2023/03/07 01:33:53;;;;;;;94.15;54.75;;;;;;;-0.14;100.00;100315.56;5073779;28;20103;-76
2023/03/07 01:36:24;;;;;;;127.53;70.78;;;;;;;-0.13;100.00;100311.16;5073721;28;20048;-76
2023/03/07 01:38:54;;;;;;;146.13;84.97;;;;;;;0.08;100.00;100314.31;5073647;28;20145;-76
2023/03/07 01:41:22;;;;;;;107.00;68.13;;;;;;;-0.04;100.00;100305.06;5073323;28;20105;-76
2023/03/07 01:43:49;;;;;;;82.00;63.50;;;;;;;-0.14;100.00;100310.34;5073841;28;20063;-76
2023/03/07 01:46:37;;;;;;;66.18;55.08;;;;;;;-0.34;100.00;100306.19;5073190;28;20053;-76
2023/03/07 01:49:08;;;;;;;65.75;55.45;;;;;;;-0.23;100.00;100298.19;5073492;28;20131;-76
2023/03/07 01:51:38;;;;;;;63.42;50.00;;;;;;;-0.17;100.00;100302.00;5074030;28;20059;-76
2023/03/07 01:54:07;;;;;;;68.03;53.20;;;;;;;-0.17;100.00;100296.78;5073405;28;20109;-76
2023/03/07 01:56:37;;;;;;;66.18;53.55;;;;;;;-0.23;100.00;100298.19;5073391;28;20487;-76
2023/03/07 01:59:05;;;;;;;67.35;49.78;;;;;;;-0.31;100.00;100282.41;5073016;28;20075;-76
2023/03/07 02:01:33;;;;;;;64.80;49.13;;;;;;;-0.56;100.00;100283.91;5073076;28;20118;-76
2023/03/07 02:04:04;;;;;;;62.88;53.40;;;;;;;-0.44;100.00;100282.75;5073004;28;20105;-76
2023/03/07 02:06:34;;;;;;;60.85;53.80;;;;;;;-0.53;100.00;100270.59;5073144;28;20071;-76
2023/03/07 02:09:02;;;;;;;76.40;60.88;;;;;;;-0.68;100.00;100257.19;5073111;28;20109;-76
2023/03/07 02:11:30;;;;;;;63.00;47.03;;;;;;;-0.59;100.00;100253.72;5072993;28;20521;-76
2023/03/07 02:13:58;;;;;;;67.05;51.28;;;;;;;-0.77;100.00;100248.44;5072629;28;20048;-76
2023/03/07 02:16:25;;;;;;;65.60;53.33;;;;;;;-0.84;100.00;100251.78;5072787;28;20052;-76
2023/03/07 02:18:52;;;;;;;81.50;64.47;;;;;;;-1.08;100.00;100270.53;5073265;28;20048;-76
2023/03/07 02:21:29;;;;;;;73.38;59.38;;;;;;;-0.59;100.00;100276.38;5072866;28;20048;-76
2023/03/07 02:24:02;;;;;;;66.82;55.53;;;;;;;-0.25;100.00;100277.44;5072881;28;20476;-76
2023/03/07 02:26:37;;;;;;;;;;;;;;;-0.18;100.00;100275.06;5072877;28;20483;-76
2023/03/07 02:29:04;;;;;;;81.88;67.80;;;;;;;-0.26;100.00;100275.78;5072784;28;19920;-76
2023/03/07 02:31:30;;;;;;;71.88;59.92;;;;;;;-0.03;100.00;100289.25;5072863;28;20482;-76
2023/03/07 02:33:57;;;;;;;68.93;58.42;;;;;;;0.07;100.00;100286.59;5072716;28;20053;-76
2023/03/07 02:36:28;;;;;;;65.43;57.72;;;;;;;0.24;100.00;100287.53;5072761;28;20215;-76
2023/03/07 02:38:57;;;;;;;73.28;63.70;;;;;;;-0.19;100.00;100289.06;5072376;28;20110;-76
2023/03/07 02:41:28;;;;;;;64.60;58.08;;;;;;;0.25;100.00;100291.81;5072662;28;20048;-76
2023/03/07 02:43:56;;;;;;;85.82;66.78;;;;;;;-0.13;100.00;100300.72;5072558;28;20056;-76
2023/03/07 02:46:23;;;;;;;68.78;52.03;;;;;;;-0.07;100.00;100293.13;5072201;28;20165;-76
2023/03/07 02:48:50;;;;;;;58.72;52.60;;;;;;;0.18;100.00;100294.22;5072448;28;20106;-76
2023/03/07 02:51:17;;;;;;;57.65;51.38;;;;;;;0.18;100.00;100296.81;5072181;28;20049;-76
2023/03/07 02:53:44;;;;;;;63.40;56.55;;;;;;;0.20;100.00;100294.03;5072284;28;20098;-76
2023/03/07 02:56:11;;;;;;;67.20;60.65;;;;;;;0.26;100.00;100288.22;5072628;28;20088;-76
2023/03/07 02:58:38;;;;;;;74.93;67.65;;;;;;;0.28;100.00;100285.47;5072400;28;20059;-76
2023/03/07 03:01:06;;;;;;;63.25;57.05;;;;;;;-0.15;100.00;100293.06;5072286;28;20049;-76
2023/03/07 03:03:33;;;;;;;69.10;62.17;;;;;;;0.30;100.00;100291.34;5072021;28;20551;-76
2023/03/07 03:06:00;;;;;;;73.75;66.72;;;;;;;0.26;100.00;100293.44;5071868;28;20048;-76
2023/03/07 03:08:26;;;;;;;62.30;55.35;;;;;;;0.04;100.00;100293.91;5072341;28;20061;-76
2023/03/07 03:10:54;;;;;;;80.90;68.15;;;;;;;-0.16;100.00;100283.56;5072067;28;20599;-76
2023/03/07 03:13:21;;;;;;;79.63;67.05;;;;;;;-0.14;100.00;100283.44;5072004;28;20048;-76
2023/03/07 03:15:48;;;;;;;71.72;61.67;;;;;;;0.11;100.00;100287.91;5072306;28;20106;-76
2023/03/07 03:18:16;;;;;;;55.17;48.90;;;;;;;0.04;100.00;100291.28;5072335;28;20113;-76
2023/03/07 03:20:43;;;;;;;61.40;54.88;;;;;;;-0.03;100.00;100284.03;5072328;28;20259;-76
2023/03/07 03:23:10;;;;;;;61.47;51.33;;;;;;;-0.06;100.00;100291.31;5071929;28;20049;-76
2023/03/07 03:25:36;;;;;;;65.90;54.90;;;;;;;0.04;100.00;100286.88;5072077;28;20048;-76
2023/03/07 03:28:03;;;;;;;64.13;54.65;;;;;;;0.02;100.00;100291.41;5071844;28;20106;-76
2023/03/07 03:30:31;;;;;;;75.47;64.82;;;;;;;0.05;100.00;100291.13;5071927;28;20048;-76
2023/03/07 03:32:58;;;;;;;72.15;64.53;;;;;;;-0.06;100.00;100281.72;5072166;28;20057;-76
2023/03/07 03:35:26;;;;;;;70.38;59.70;;;;;;;0.15;100.00;100281.44;5072094;28;20056;-76
2023/03/07 03:37:53;;;;;;;75.20;56.20;;;;;;;0.08;100.00;100285.59;5072051;28;20052;-76
2023/03/07 03:40:19;;;;;;;69.32;54.85;;;;;;;0.01;100.00;100283.75;5072012;28;20452;-76
2023/03/07 03:42:46;;;;;;;67.50;56.60;;;;;;;-0.08;100.00;100285.44;5072052;28;20114;-76
2023/03/07 03:45:14;;;;;;;69.47;54.20;;;;;;;-0.09;100.00;100283.78;5071622;28;20106;-76
2023/03/07 03:47:41;;;;;;;67.00;50.58;;;;;;;-0.15;100.00;100281.75;5072001;28;20131;-76
2023/03/07 03:50:09;;;;;;;68.18;48.35;;;;;;;-0.05;100.00;100287.75;5071624;28;20547;-76
2023/03/07 03:52:37;;;;;;;69.57;52.80;;;;;;;0.11;100.00;100279.25;5074668;28;20110;-76
2023/03/07 03:55:04;;;;;;;72.63;56.15;;;;;;;-0.04;100.00;100287.59;5075629;28;20052;-76
2023/03/07 03:57:31;;;;;;;70.15;60.35;;;;;;;-0.16;100.00;100283.56;5071492;28;20045;-76
2023/03/07 03:59:57;;;;;;;74.93;59.75;;;;;;;-0.07;100.00;100280.06;5055301;28;20114;-76
2023/03/07 04:02:25;;;;;;;75.50;61.80;;;;;;;-0.14;100.00;100280.81;5055505;28;20496;-76
2023/03/07 04:04:52;;;;;;;75.38;67.15;;;;;;;-0.24;100.00;100289.53;5055227;28;20055;-76
2023/03/07 04:07:18;;;;;;;70.45;59.13;;;;;;;-0.31;100.00;100288.44;5055295;28;20041;-76
2023/03/07 04:09:46;;;;;;;75.68;63.42;;;;;;;-0.32;100.00;100276.38;5055707;28;20095;-76
2023/03/07 04:12:13;;;;;;;70.72;60.10;;;;;;;-0.11;100.00;100286.56;5055359;28;20049;-76
2023/03/07 04:14:40;;;;;;;68.45;57.08;;;;;;;-0.10;100.00;100290.00;5055281;28;20457;-76
2023/03/07 04:17:07;;;;;;;69.90;62.33;;;;;;;-0.19;100.00;100296.09;5055298;28;20044;-76
2023/03/07 04:19:33;;;;;;;64.55;53.75;;;;;;;-0.10;100.00;100293.41;5054944;28;20585;-76
2023/03/07 04:22:00;;;;;;;69.25;61.10;;;;;;;-0.08;100.00;100294.09;5055169;28;20099;-76
2023/03/07 04:24:27;;;;;;;67.22;54.30;;;;;;;-0.03;100.00;100294.50;5054852;28;20572;-76
2023/03/07 04:26:55;;;;;;;74.07;64.57;;;;;;;0.16;100.00;100292.72;5054680;28;20045;-76
2023/03/07 04:29:22;;;;;;;78.75;64.13;;;;;;;0.18;100.00;100301.19;5055399;28;20114;-76
2023/03/07 04:31:48;;;;;;;68.43;58.95;;;;;;;0.15;100.00;100297.13;5055219;28;20053;-76
2023/03/07 04:34:15;;;;;;;65.07;55.28;;;;;;;0.28;100.00;100304.56;5055289;28;20118;-76
2023/03/07 04:36:42;;;;;;;62.03;51.47;;;;;;;0.40;100.00;100319.06;5054601;28;20045;-76
2023/03/07 04:39:09;;;;;;;57.30;51.35;;;;;;;0.70;100.00;100327.47;5054565;28;20053;-76
2023/03/07 04:41:35;;;;;;;57.88;51.78;;;;;;;0.71;100.00;100308.19;5054828;28;20053;-76
2023/03/07 04:44:04;;;;;;;60.33;51.72;;;;;;;0.20;100.00;100310.53;5054956;28;20135;-76
2023/03/07 04:46:31;;;;;;;58.53;47.53;;;;;;;-0.01;100.00;100317.81;5054660;28;20041;-76
2023/03/07 04:48:57;;;;;;;52.10;42.28;;;;;;;0.13;100.00;100311.28;5054684;28;20122;-76
2023/03/07 04:51:24;;;;;;;61.63;42.65;;;;;;;0.18;100.00;100322.94;5054411;28;20056;-76
2023/03/07 04:53:51;;;;;;;80.28;57.97;;;;;;;-0.09;100.00;100317.72;5054667;28;20050;-76
2023/03/07 04:56:18;;;;;;;89.60;58.70;;;;;;;0.07;100.00;100323.16;5054256;28;20049;-76
2023/03/07 04:58:45;;;;;;;91.47;56.47;;;;;;;-0.02;100.00;100316.19;5054309;28;20509;-76
2023/03/07 05:01:13;;;;;;;133.40;78.28;;;;;;;-0.06;100.00;100322.66;5058170;28;20048;-76
2023/03/07 05:03:40;;;;;;;146.50;85.57;;;;;;;0.03;100.00;100326.19;5074020;28;20056;-76
2023/03/07 05:06:08;;;;;;;158.15;93.93;;;;;;;0.26;100.00;100330.03;5073798;28;20057;-76
2023/03/07 05:08:35;;;;;;;156.65;96.72;;;;;;;0.42;100.00;100331.97;5073217;28;20041;-76
2023/03/07 05:11:02;;;;;;;128.82;79.97;;;;;;;0.58;100.00;100328.69;5073841;28;20051;-76
2023/03/07 05:13:29;;;;;;;118.10;72.68;;;;;;;0.62;100.00;100320.38;5073999;28;20102;-76
2023/03/07 05:15:57;;;;;;;130.45;77.90;;;;;;;0.62;100.00;100307.31;5074164;28;20106;-76
2023/03/07 05:18:26;;;;;;;141.05;73.68;;;;;;;0.69;100.00;100312.75;5073784;28;20052;-76
2023/03/07 05:20:52;;;;;;;116.93;68.55;;;;;;;0.61;100.00;100308.28;5074130;28;20475;-76
2023/03/07 05:23:20;;;;;;;119.30;70.10;;;;;;;0.56;100.00;100314.94;5073797;28;20044;-76
2023/03/07 05:25:46;;;;;;;101.72;60.55;;;;;;;0.41;100.00;100319.88;5073897;28;20053;-76
2023/03/07 05:28:13;;;;;;;90.38;60.40;;;;;;;1.01;100.00;100325.25;5073742;28;20049;-76
2023/03/07 05:30:40;;;;;;;83.25;56.67;;;;;;;1.23;100.00;100331.75;5073968;28;20048;-76
2023/03/07 05:33:07;;;;;;;57.40;45.05;;;;;;;1.43;100.00;100327.13;5073854;28;20048;-76
2023/03/07 05:35:35;;;;;;;61.42;45.53;;;;;;;1.41;100.00;100336.13;5073526;28;20485;-76
2023/03/07 05:38:01;;;;;;;50.50;45.08;;;;;;;1.59;100.00;100331.63;5073421;28;20048;-76
2023/03/07 05:40:28;;;;;;;55.75;47.58;;;;;;;1.67;100.00;100325.63;5073708;28;20480;-76
2023/03/07 05:42:55;;;;;;;51.75;45.55;;;;;;;1.56;100.00;100329.31;5073738;28;20040;-76
2023/03/07 05:45:22;;;;;;;50.00;44.67;;;;;;;1.77;100.00;100331.53;5073608;28;20048;-76
2023/03/07 05:47:49;;;;;;;53.40;42.88;;;;;;;1.76;100.00;100338.56;5073186;28;20567;-76
2023/03/07 05:50:17;;;;;;;52.83;41.38;;;;;;;1.73;100.00;100336.28;5073147;28;20563;-76
2023/03/07 05:52:46;;;;;;;51.33;43.30;;;;;;;1.82;100.00;100332.72;5073097;28;20044;-76
2023/03/07 05:55:12;;;;;;;54.55;46.08;;;;;;;2.00;100.00;100345.69;5073390;28;20044;-76
2023/03/07 05:57:39;;;;;;;59.13;47.08;;;;;;;2.03;100.00;100341.94;5073291;28;20098;-76
2023/03/07 06:00:07;;;;;;;54.63;45.78;;;;;;;1.86;100.00;100342.88;5073356;28;20056;-76
2023/03/07 06:02:34;;;;;;;62.35;47.13;;;;;;;2.15;100.00;100343.28;5073120;28;20135;-76
2023/03/07 06:05:00;;;;;;;57.03;45.78;;;;;;;2.44;100.00;100348.06;5073081;28;20052;-76
2023/03/07 06:07:27;;;;;;;61.33;46.17;;;;;;;2.50;100.00;100344.81;5073043;28;20102;-76
2023/03/07 06:09:55;;;;;;;61.58;46.13;;;;;;;2.49;100.00;100348.41;5072769;28;20048;-76
2023/03/07 06:12:22;;;;;;;57.58;45.17;;;;;;;2.38;100.00;100343.47;5073008;28;20113;-76
2023/03/07 06:14:48;;;;;;;56.70;45.13;;;;;;;2.73;100.00;100338.94;5072318;28;20049;-76
2023/03/07 06:17:15;;;;;;;52.00;45.17;;;;;;;2.93;100.00;100345.47;5073051;28;20102;-76
2023/03/07 06:19:42;;;;;;;50.47;44.30;;;;;;;3.28;100.00;100350.53;5072888;28;20514;-76
2023/03/07 06:22:08;;;;;;;62.95;51.47;;;;;;;3.72;100.00;100344.81;5072710;28;20048;-76
2023/03/07 06:24:35;;;;;;;65.57;49.35;;;;;;;3.89;100.00;100344.56;5072648;28;20052;-76
2023/03/07 06:27:03;;;;;;;74.35;50.22;;;;;;;4.07;100.00;100343.50;5072396;28;20498;-76
2023/03/07 06:29:30;;;;;;;63.65;49.88;;;;;;;4.34;100.00;100347.47;5072843;28;20217;-76
2023/03/07 06:31:57;;;;;;;382.98;152.93;;;;;;;4.41;100.00;100348.38;5073071;28;20049;-76
2023/03/07 06:34:24;;;;;;;832.53;364.95;;;;;;;4.47;100.00;100347.69;5072745;28;20056;-76
2023/03/07 06:36:50;;;;;;;205.35;88.80;;;;;;;4.58;100.00;100351.72;5072591;28;20087;-76
2023/03/07 06:39:19;;;;;;;147.85;82.00;;;;;;;4.80;100.00;100357.97;5072545;28;20048;-77
2023/03/07 06:41:46;;;;;;;403.17;202.32;;;;;;;5.18;100.00;100361.44;5084176;28;20048;-79
2023/03/07 06:44:15;;;;;;;81.38;51.67;;;;;;;5.41;100.00;100360.53;5084514;28;20052;-79
2023/03/07 06:46:42;;;;;;;70.55;51.28;;;;;;;5.89;100.00;100355.72;5084734;28;20537;-79
2023/03/07 06:49:09;;;;;;;82.78;57.50;;;;;;;6.29;100.00;100354.38;5084408;28;20052;-79
2023/03/07 06:51:35;;;;;;;61.63;46.22;;;;;;;6.17;100.00;100354.06;5084702;28;20048;-79
2023/03/07 06:54:02;;;;;;;56.03;45.88;;;;;;;6.39;100.00;100359.38;5084242;28;20056;-79
2023/03/07 06:56:30;;;;;;;54.22;41.13;;;;;;;6.70;100.00;100368.81;5085074;28;20052;-79
2023/03/07 06:58:56;;;;;;;47.60;39.70;;;;;;;6.79;100.00;100362.38;5084750;28;20048;-79
2023/03/07 07:01:24;;;;;;;53.88;44.88;;;;;;;7.21;100.00;100363.34;5084346;28;20596;-79
2023/03/07 07:03:51;;;;;;;44.00;39.80;;;;;;;7.16;100.00;100365.72;5084057;28;20574;-79
2023/03/07 07:06:18;;;;;;;45.50;39.47;;;;;;;7.51;100.00;100358.66;5084527;28;20071;-79
2023/03/07 07:08:45;;;;;;;35.67;32.40;;;;;;;7.63;100.00;100353.66;5084374;28;20074;-79
2023/03/07 07:11:11;;;;;;;39.13;35.75;;;;;;;7.91;100.00;100367.59;5085213;28;20044;-79
2023/03/07 07:13:38;;;;;;;39.13;35.28;;;;;;;8.02;100.00;100361.75;5085616;28;20113;-79
2023/03/07 07:16:06;;;;;;;38.88;35.53;;;;;;;8.11;100.00;100367.69;5084821;28;20052;-79
2023/03/07 07:18:34;;;;;;;36.60;33.05;;;;;;;8.51;100.00;100353.78;5084758;28;20049;-79
2023/03/07 07:21:01;;;;;;;41.30;37.47;;;;;;;9.10;100.00;100364.41;5084594;28;20114;-79
2023/03/07 07:23:28;;;;;;;34.58;31.17;;;;;;;9.00;100.00;100355.25;5084584;28;20053;-79
2023/03/07 07:25:55;;;;;;;36.20;32.70;;;;;;;9.57;100.00;100354.56;5086154;28;20044;-79
2023/03/07 07:28:22;;;;;;;36.15;32.78;;;;;;;10.29;100.00;100351.88;5089949;28;20488;-79
2023/03/07 07:30:48;;;;;;;39.75;35.88;;;;;;;10.41;100.00;100349.31;5090806;28;20052;-79
2023/03/07 07:33:15;;;;;;;35.75;32.30;;;;;;;10.53;100.00;100351.09;5089909;28;20122;-79
2023/03/07 07:35:44;;;;;;;40.58;36.25;;;;;;;10.66;100.00;100357.34;5088874;28;20504;-79
2023/03/07 07:38:12;;;;;;;38.30;34.20;;;;;;;11.03;100.00;100352.97;5089607;28;20433;-79
2023/03/07 07:40:39;;;;;;;38.90;34.63;;;;;;;11.53;100.00;100349.44;5090683;28;20567;-79
2023/03/07 07:43:06;;;;;;;33.63;30.05;;;;;;;12.07;100.00;100348.66;5090658;28;20074;-79
2023/03/07 07:45:32;;;;;;;34.08;30.33;;;;;;;12.40;100.00;100362.53;5091340;28;20052;-79
2023/03/07 07:47:59;;;;;;;37.65;33.83;;;;;;;13.21;100.00;100356.53;5091376;28;20068;-79
2023/03/07 07:50:26;;;;;;;41.00;36.97;;;;;;;12.54;100.00;100348.00;5091755;28;20048;-79
2023/03/07 07:52:54;;;;;;;44.92;38.80;;;;;;;12.89;100.00;100352.56;5091072;28;20049;-79
2023/03/07 07:55:23;;;;;;;40.30;34.20;;;;;;;13.15;100.00;100341.47;5091909;28;20079;-79
2023/03/07 07:57:50;;;;;;;36.72;33.25;;;;;;;14.09;100.00;100345.88;5091447;28;20048;-79
2023/03/07 08:00:20;;;;;;;39.65;35.92;;;;;;;13.56;100.00;100344.28;5092018;28;20057;-80
2023/03/07 08:02:48;;;;;;;32.20;28.92;;;;;;;14.29;100.00;100340.09;5091975;28;20045;-80
2023/03/07 08:05:15;;;;;;;27.08;24.33;;;;;;;13.82;100.00;100334.91;5091103;28;20139;-79
2023/03/07 08:07:42;;;;;;;27.45;24.90;;;;;;;13.54;93.64;100352.50;5091821;28;20487;-79
2023/03/07 08:10:14;;;;;;;32.53;29.95;;;;;;;14.53;100.00;100343.50;5090837;28;20464;-80
2023/03/07 08:12:41;;;;;;;25.95;23.75;;;;;;;14.71;86.87;100332.59;5090849;28;20076;-79
2023/03/07 08:15:09;;;;;;;26.38;24.38;;;;;;;15.02;85.99;100341.09;5091485;28;20067;-80
2023/03/07 08:17:35;;;;;;;26.08;23.98;;;;;;;15.03;87.54;100346.19;5091147;28;20584;-79
2023/03/07 08:20:08;;;;;;;36.63;34.13;;;;;;;14.33;83.86;100342.03;5090828;28;20056;-79
2023/03/07 08:22:35;;;;;;;28.15;25.95;;;;;;;12.97;85.19;100344.25;5089634;28;20395;-79
2023/03/07 08:25:03;;;;;;;25.30;23.02;;;;;;;14.10;83.98;100334.97;5090636;28;20053;-79
2023/03/07 08:27:31;;;;;;;22.52;20.02;;;;;;;13.87;89.17;100333.16;5090122;28;20041;-79
2023/03/07 08:29:58;;;;;;;32.67;30.45;;;;;;;14.39;77.79;100330.41;5089582;28;20074;-79
2023/03/07 08:32:25;;;;;;;31.98;29.67;;;;;;;14.16;87.90;100335.84;5090891;28;20071;-79
2023/03/07 08:34:51;;;;;;;23.92;21.70;;;;;;;14.44;79.49;100325.16;5090298;28;20075;-79
2023/03/07 08:37:18;;;;;;;28.40;25.85;;;;;;;12.13;89.28;100330.94;5090199;28;20044;-79
2023/03/07 08:39:45;;;;;;;26.90;24.60;;;;;;;12.69;98.83;100329.72;5090162;28;20102;-79
2023/03/07 08:42:12;;;;;;;30.08;27.50;;;;;;;12.28;98.01;100330.53;5089178;28;20102;-79
2023/03/07 08:44:40;;;;;;;25.90;23.02;;;;;;;10.67;100.00;100341.19;5089080;28;20056;-79
2023/03/07 08:47:07;;;;;;;27.55;25.05;;;;;;;12.76;100.00;100327.75;5088681;28;20052;-79
2023/03/07 08:49:34;;;;;;;24.88;22.77;;;;;;;11.11;100.00;100336.75;5088056;28;20052;-79
2023/03/07 08:52:00;;;;;;;29.83;27.70;;;;;;;13.27;100.00;100328.16;5089295;28;20048;-79
2023/03/07 08:54:28;;;;;;;24.58;22.38;;;;;;;12.13;100.00;100333.59;5089433;28;20559;-79
2023/03/07 08:56:55;;;;;;;21.27;19.27;;;;;;;14.16;83.87;100327.81;5088763;28;20116;-79
2023/03/07 08:59:21;;;;;;;23.02;20.85;;;;;;;14.10;78.76;100326.94;5089654;28;20110;-79
2023/03/07 09:01:50;;;;;;;30.17;27.70;;;;;;;12.31;85.86;100332.75;5089909;28;20075;-79
2023/03/07 09:04:16;;;;;;;27.15;25.23;;;;;;;13.44;89.34;100330.94;5088973;28;20057;-79
2023/03/07 09:06:43;;;;;;;21.85;19.75;;;;;;;13.78;82.10;100339.13;5089158;28;20082;-79
2023/03/07 09:09:10;;;;;;;20.95;19.35;;;;;;;14.36;78.69;100327.41;5089674;28;20113;-79
2023/03/07 09:11:36;;;;;;;23.63;21.55;;;;;;;15.14;75.43;100330.31;5089915;28;20053;-79
2023/03/07 09:14:03;;;;;;;24.70;22.58;;;;;;;14.96;73.64;100334.84;5091310;28;20097;-79
2023/03/07 09:16:30;;;;;;;21.95;19.88;;;;;;;13.09;82.26;100328.25;5090106;28;20075;-79
2023/03/07 09:18:58;;;;;;;24.23;21.90;;;;;;;13.52;79.33;100333.22;5090056;28;20044;-79
2023/03/07 09:21:25;;;;;;;22.60;20.55;;;;;;;15.57;78.30;100333.03;5088869;28;20056;-79
2023/03/07 09:23:51;;;;;;;26.45;24.45;;;;;;;14.70;84.66;100332.81;5090437;28;20052;-79
2023/03/07 09:26:18;;;;;;;22.92;21.02;;;;;;;14.77;75.12;100330.81;5089648;28;20106;-79
2023/03/07 09:28:45;;;;;;;23.33;21.33;;;;;;;14.40;79.65;100328.53;5089083;28;20410;-79
2023/03/07 09:31:13;;;;;;;24.92;22.52;;;;;;;12.29;95.66;100329.50;5088013;28;20048;-79
2023/03/07 09:33:41;;;;;;;29.00;26.70;;;;;;;15.43;78.27;100330.97;5088847;28;20074;-79
2023/03/07 09:36:12;;;;;;;27.90;25.42;;;;;;;14.56;76.88;100321.63;5089992;28;20071;-79
2023/03/07 09:38:39;;;;;;;24.42;22.42;;;;;;;14.62;74.84;100324.16;5089154;28;20044;-79
2023/03/07 09:41:19;;;;;;;23.35;21.45;;;;;;;17.05;68.55;100322.22;5089349;28;20078;-79
2023/03/07 09:43:53;;;;;;;23.10;21.33;;;;;;;14.53;71.92;100328.28;5090509;28;20045;-79
2023/03/07 09:46:33;;;;;;;23.15;21.20;;;;;;;14.95;75.59;100327.88;5089427;28;20049;-82
2023/03/07 09:49:18;;;;;;;26.10;23.70;;;;;;;11.68;90.08;100323.28;5088015;28;20049;-79
2023/03/07 09:51:50;;;;;;;24.55;22.45;;;;;;;14.48;91.07;100313.97;5088321;28;20074;-79
2023/03/07 09:54:19;;;;;;;25.53;23.10;;;;;;;15.53;78.79;100321.22;5088402;28;20045;-79
2023/03/07 09:56:49;;;;;;;23.85;21.95;;;;;;;14.92;74.63;100315.00;5088810;28;20110;-79
2023/03/07 09:59:21;;;;;;;28.60;26.20;;;;;;;13.74;88.74;100320.09;5088769;28;20093;-79
2023/03/07 10:01:51;;;;;;;27.77;25.35;;;;;;;13.59;87.02;100317.13;5088385;28;20053;-79
2023/03/07 10:04:26;;;;;;;26.27;24.17;;;;;;;13.36;96.98;100315.28;5087407;28;20076;-79
2023/03/07 10:06:57;;;;;;;23.08;21.17;;;;;;;14.02;92.25;100315.84;5087608;28;20511;-79
2023/03/07 10:09:25;;;;;;;24.00;21.60;;;;;;;13.28;83.78;100301.28;5088661;28;20048;-79
2023/03/07 10:12:17;;;;;;;25.10;22.92;;;;;;;13.92;82.36;100303.09;5087960;28;20298;-79
2023/03/07 10:15:19;;;;;;;24.52;22.60;;;;;;;16.54;77.73;100290.41;5089148;28;20072;-79
2023/03/07 10:17:57;;;;;;;24.20;22.10;;;;;;;16.30;64.35;100287.25;5089172;28;20090;-79
2023/03/07 10:20:33;;;;;;;24.42;22.40;;;;;;;16.04;68.33;100294.25;5089385;28;20053;-79
2023/03/07 10:23:15;;;;;;;25.90;23.77;;;;;;;14.30;72.16;100299.78;5089977;28;20485;-79
2023/03/07 10:25:52;;;;;;;24.02;21.95;;;;;;;12.46;80.41;100292.38;5088807;28;20044;-79
2023/03/07 10:28:23;;;;;;;24.65;22.90;;;;;;;16.36;75.73;100293.47;5087347;28;20074;-79
2023/03/07 10:30:51;;;;;;;29.45;27.05;;;;;;;13.35;78.53;100303.00;5087956;28;20049;-79
2023/03/07 10:33:19;;;;;;;26.05;24.25;;;;;;;16.10;71.39;100279.84;5088315;28;20045;-79
2023/03/07 10:35:55;;;;;;;26.10;24.20;;;;;;;14.49;70.97;100279.00;5088515;28;20053;-79
2023/03/07 10:38:32;;;;;;;23.65;21.95;;;;;;;14.78;72.06;100279.75;5088631;28;20113;-79
2023/03/07 10:41:04;;;;;;;22.73;21.02;;;;;;;14.26;70.65;100279.94;5088048;28;20502;-79
2023/03/07 10:43:32;;;;;;;25.58;23.58;;;;;;;14.51;70.95;100279.59;5088779;28;20110;-80
2023/03/07 10:46:06;;;;;;;22.33;20.42;;;;;;;15.57;69.99;100276.00;5088414;28;20532;-79
2023/03/07 10:48:37;;;;;;;23.77;21.80;;;;;;;15.39;66.45;100274.44;5088229;28;20044;-79
2023/03/07 10:51:20;;;;;;;25.02;23.20;;;;;;;16.50;62.38;100275.91;5088686;28;20444;-79
2023/03/07 10:53:50;;;;;;;24.63;22.63;;;;;;;17.46;61.14;100261.53;5089275;28;20071;-79
2023/03/07 10:56:18;;;;;;;24.85;22.92;;;;;;;18.18;61.17;100265.22;5089033;28;20048;-79
2023/03/07 10:59:00;;;;;;;25.13;23.23;;;;;;;14.21;65.88;100259.28;5088787;28;20052;-79
2023/03/07 11:01:28;;;;;;;22.27;20.48;;;;;;;14.66;64.47;100254.97;5087900;28;20078;-79
2023/03/07 11:03:59;;;;;;;24.13;22.13;;;;;;;19.56;56.79;100245.34;5088201;28;20048;-79
2023/03/07 11:06:33;;;;;;;24.90;23.00;;;;;;;17.16;57.23;100257.63;5089126;28;20108;-79
2023/03/07 11:09:16;;;;;;;23.48;21.58;;;;;;;16.97;64.17;100244.88;5089524;28;20045;-79
2023/03/07 11:11:47;;;;;;;;;;;;;;;17.05;63.82;100237.16;5090316;28;20075;-80